CW9790 Weather Reports


Display with metric or nautical units.
time (UTC)temp
F
wind
direction
speed
MPH
gust
MPH
rain 1hr
in
rain 24hr
in
rain mn
in
humidity
%
barometer
mb
20260905053019 77 0.0 2.0 0.00 0.00 0.00 78 1012.8
20260905052017 77 0.0 3.0 0.00 0.00 0.00 78 1013.0
20260905051017 77 0.0 0.0 0.00 0.00 0.00 77 1013.1
20260905050017 77 0.0 2.0 0.00 0.00 0.00 77 1012.9
20260905045036 77 0.0 3.0 0.00 0.00 0.00 77 1013.0
20260905044016 77 0.0 1.0 0.00 0.00 0.00 77 1012.7
20260905043016 77 0.0 2.0 0.00 0.00 0.00 77 1012.8
20260905042117 77 135 1.0 2.0 0.00 0.00 0.00 77 1012.6
20260905041016 76 0.0 2.0 0.00 0.00 0.00 77 1012.8
20260905040016 76 0.0 2.0 0.00 0.00 0.00 77 1012.6
20260905035016 76 0.0 2.0 0.00 0.00 0.00 76 1012.6
20260905034016 76 0.0 3.0 0.00 0.00 0.00 76 1012.4
20260905033021 76 0.0 0.0 0.00 0.00 0.00 75 1012.2
20260905032016 77 0.0 0.0 0.00 0.00 0.00 75 1012.2
20260905031037 77 0.0 0.0 0.00 0.00 0.00 74 1011.9
20260905030036 77 0.0 0.0 0.00 0.00 0.00 72 1011.9
20260905025016 78 0.0 0.0 0.00 0.00 0.00 73 1011.8
20260905024017 78 0.0 0.0 0.00 0.00 0.00 73 1011.5
20260905023016 79 0.0 0.0 0.00 0.00 0.00 73 1011.4
20260905022018 79 0.0 1.0 0.00 0.00 0.00 72 1011.3
20260905021018 80 0.0 0.0 0.00 0.00 0.00 71 1011.1
20260905020017 80 0.0 0.0 0.00 0.00 0.00 70 1011.2
20260905015018 81 0.0 0.0 0.00 0.00 0.00 69 1011.2
20260905014017 81 0.0 0.0 0.00 0.00 0.00 68 1011.1
20260905013038 82 0.0 0.0 0.00 0.00 0.00 66 1011.2
20260905012018 82 0.0 0.0 0.00 0.00 0.00 65 1011.3
20260905011038 83 0.0 0.0 0.00 0.00 0.00 65 1011.2
20260905010018 84 0.0 2.0 0.00 0.00 0.00 64 1011.2
20260905005018 84 0.0 3.0 0.00 0.00 0.00 61 1011.4
20260905004017 85 135 1.0 4.0 0.00 0.00 0.00 61 1011.4
20260905003017 85 135 1.0 3.0 0.00 0.00 0.00 59 1011.4
20260905002017 86 135 1.0 3.0 0.00 0.00 0.00 61 1011.5
20260905001018 86 135 1.0 5.0 0.00 0.00 0.00 58 1011.3
20260905000017 86 158 1.0 4.0 0.00 0.00 0.00 57 1011.3
20260904235019 86 113 1.0 4.0 0.00 0.00 0.00 57 1011.2
20260904234018 87 135 1.0 3.0 0.00 0.00 0.00 58 1011.3
20260904233037 87 113 1.0 5.0 0.00 0.00 0.00 57 1011.0
20260904232018 88 113 1.0 3.0 0.00 0.00 0.00 58 1010.8
20260904231017 89 0.0 5.0 0.00 0.00 0.00 57 1010.9
20260904230037 90 68 2.0 4.0 0.00 0.00 0.00 55 1011.1
20260904225017 91 135 3.0 9.0 0.00 0.00 0.00 52 1010.9
20260904224058 92 135 2.0 10.0 0.00 0.00 0.00 51 1011.0
20260904223017 92 293 2.0 6.0 0.00 0.00 0.00 52 1011.0
20260904222017 91 135 2.0 6.0 0.00 0.00 0.00 53 1011.1
20260904221017 90 135 2.0 6.0 0.00 0.00 0.00 54 1010.9
20260904220017 90 113 1.0 6.0 0.00 0.00 0.00 52 1011.0
20260904215017 91 135 2.0 9.0 0.00 0.00 0.00 54 1011.3
20260904214017 92 158 2.0 7.0 0.00 0.00 0.00 56 1011.4
20260904213017 92 135 1.0 5.0 0.00 0.00 0.00 56 1011.6
20260904212017 91 68 2.0 6.0 0.00 0.00 0.00 58 1011.7
20260904211017 89 113 2.0 9.0 0.00 0.00 0.00 61 1011.7
20260904210037 87 135 1.0 5.0 0.00 0.00 0.00 65 1011.7
20260904205017 87 135 1.0 3.0 0.00 0.00 0.00 64 1011.7
20260904204017 87 113 2.0 7.0 0.00 0.00 0.00 62 1012.0
20260904203017 88 135 2.0 6.0 0.00 0.00 0.00 61 1012.2
20260904202017 88 158 2.0 7.0 0.00 0.00 0.00 61 1012.2
20260904201017 88 135 2.0 5.0 0.00 0.00 0.00 60 1012.2
20260904200017 89 135 2.0 6.0 0.00 0.00 0.00 60 1012.5
20260904195017 90 68 2.0 5.0 0.00 0.00 0.00 58 1012.5
20260904194017 91 180 2.0 6.0 0.00 0.00 0.00 57 1012.6
20260904193016 92 135 2.0 7.0 0.00 0.00 0.00 54 1012.8
20260904192017 92 135 2.0 6.0 0.00 0.00 0.00 53 1012.9
20260904191016 92 135 2.0 11.0 0.00 0.00 0.00 55 1013.0
20260904190017 92 113 2.0 7.0 0.00 0.00 0.00 58 1012.8
20260904185017 91 68 2.0 5.0 0.00 0.00 0.00 58 1012.9
20260904184016 91 135 2.0 7.0 0.00 0.00 0.00 58 1013.1
20260904183017 91 113 2.0 6.0 0.00 0.00 0.00 58 1013.2
20260904182017 91 90 2.0 7.0 0.00 0.00 0.00 59 1013.1
20260904181016 90 113 2.0 6.0 0.00 0.00 0.00 60 1013.3
20260904180016 88 135 2.0 7.0 0.00 0.00 0.00 64 1013.3
20260904175038 87 135 2.0 6.0 0.00 0.00 0.00 64 1013.1
20260904174018 87 158 1.0 5.0 0.00 0.00 0.00 64 1013.4
20260904173017 87 135 2.0 6.0 0.00 0.00 0.00 66 1013.5
20260904172038 87 135 2.0 7.0 0.00 0.00 0.00 65 1013.5
20260904171017 87 135 2.0 10.0 0.00 0.00 0.00 64 1013.6
20260904170037 87 135 3.0 9.0 0.00 0.00 0.00 65 1013.7
20260904165016 87 135 2.0 7.0 0.00 0.00 0.00 65 1013.7
20260904164017 86 135 3.0 9.0 0.00 0.00 0.00 69 1013.8
20260904163037 84 135 2.0 6.0 0.00 0.00 0.00 72 1013.7
20260904162037 83 135 2.0 8.0 0.00 0.00 0.00 75 1013.7
20260904161016 82 158 2.0 6.0 0.00 0.00 0.00 76 1013.6
20260904160016 81 135 2.0 5.0 0.00 0.00 0.00 79 1013.6
20260904155016 81 135 2.0 6.0 0.00 0.00 0.00 80 1013.5
20260904154023 80 135 3.0 6.0 0.00 0.00 0.00 81 1013.6
20260904153016 80 158 1.0 6.0 0.00 0.00 0.00 84 1013.2
20260904152016 79 135 2.0 5.0 0.00 0.00 0.00 84 1013.1
20260904151016 78 135 1.0 6.0 0.00 0.00 0.00 85 1013.2
20260904150017 78 135 2.0 6.0 0.00 0.00 0.00 86 1013.2
20260904145016 78 135 2.0 6.0 0.00 0.00 0.00 87 1013.2
20260904144016 78 135 2.0 6.0 0.00 0.00 0.00 88 1013.3
20260904143016 77 135 2.0 5.0 0.00 0.00 0.00 89 1013.2
20260904142016 77 135 2.0 7.0 0.00 0.00 0.00 91 1013.2
20260904141016 76 158 2.0 8.0 0.00 0.00 0.00 91 1013.1
20260904140036 76 135 2.0 7.0 0.00 0.00 0.00 92 1012.9
20260904135018 75 135 2.0 7.0 0.00 0.00 0.00 92 1012.6
20260904134018 75 113 1.0 5.0 0.00 0.00 0.00 92 1012.7
20260904133019 75 135 2.0 5.0 0.00 0.00 0.00 92 1012.5
20260904132018 75 158 1.0 4.0 0.00 0.00 0.00 92 1012.5
20260904131058 75 158 1.0 5.0 0.00 0.00 0.00 92 1012.3
20260904130017 74 135 1.0 5.0 0.00 0.00 0.00 92 1012.1
20260904125018 74 135 2.0 5.0 0.00 0.00 0.00 92 1012.1
20260904124017 74 135 1.0 4.0 0.00 0.00 0.00 92 1012.2
20260904123038 74 158 1.0 5.0 0.00 0.00 0.00 91 1011.9
20260904122018 74 135 1.0 5.0 0.00 0.00 0.00 91 1011.7
20260904121038 74 158 1.0 4.0 0.00 0.00 0.00 91 1011.7
20260904120018 74 180 1.0 3.0 0.00 0.00 0.00 90 1011.5
20260904115019 74 203 1.0 4.0 0.00 0.00 0.00 90 1011.7
20260904114018 74 158 1.0 5.0 0.00 0.00 0.00 90 1011.6
20260904113017 74 158 1.0 5.0 0.00 0.00 0.00 90 1011.6
20260904112017 74 135 1.0 7.0 0.00 0.00 0.00 90 1011.6
20260904111017 75 135 1.0 5.0 0.00 0.00 0.00 89 1011.7
20260904110019 75 158 1.0 5.0 0.00 0.00 0.00 89 1011.7
20260904105018 75 135 1.0 5.0 0.00 0.00 0.00 89 1011.8
20260904104037 75 135 1.0 6.0 0.00 0.00 0.00 89 1011.9
20260904103017 75 158 2.0 5.0 0.00 0.00 0.00 89 1011.9
20260904102017 75 158 1.0 5.0 0.00 0.00 0.00 89 1012.0
20260904101017 75 135 2.0 6.0 0.00 0.00 0.00 89 1011.9
20260904100018 75 135 2.0 6.0 0.00 0.00 0.00 89 1011.9
20260904095018 75 180 2.0 7.0 0.00 0.00 0.00 88 1011.8
20260904094017 75 135 2.0 7.0 0.00 0.00 0.00 88 1011.8
20260904093018 75 135 2.0 7.0 0.00 0.00 0.00 88 1011.8
20260904092017 75 135 3.0 7.0 0.00 0.00 0.00 88 1011.9
20260904091018 76 180 3.0 11.0 0.00 0.00 0.00 88 1011.9
20260904090017 76 180 2.0 10.0 0.00 0.00 0.00 88 1012.1
20260904085018 76 135 1.0 5.0 0.00 0.00 0.00 87 1011.8
20260904084017 76 158 2.0 6.0 0.00 0.00 0.00 87 1011.9
20260904083017 76 135 2.0 6.0 0.00 0.00 0.00 86 1011.8
20260904082016 76 135 3.0 9.0 0.00 0.00 0.00 86 1011.9
20260904081017 76 135 2.0 6.0 0.00 0.00 0.00 86 1011.9
20260904080017 76 135 2.0 11.0 0.00 0.00 0.00 85 1012.0
20260904075017 77 135 3.0 7.0 0.00 0.00 0.00 85 1012.1
20260904074017 77 135 3.0 10.0 0.00 0.00 0.00 84 1012.1
20260904073017 77 158 2.0 7.0 0.00 0.00 0.00 84 1012.3
20260904072037 77 158 2.0 5.0 0.00 0.00 0.00 83 1012.4
20260904071037 78 158 3.0 9.0 0.00 0.00 0.00 83 1012.4
20260904070017 78 158 3.0 9.0 0.00 0.00 0.00 82 1012.3
20260904065038 78 158 2.0 7.0 0.00 0.00 0.00 81 1012.3
20260904064017 79 180 3.0 13.0 0.00 0.00 0.00 80 1012.4
20260904063017 79 135 4.0 17.0 0.00 0.00 0.00 78 1012.4
20260904062017 79 135 3.0 11.0 0.00 0.00 0.00 75 1012.3
20260904061016 80 135 2.0 12.0 0.00 0.00 0.00 73 1012.0
20260904060017 80 113 3.0 11.0 0.00 0.00 0.00 71 1012.2
20260904055017 80 135 2.0 10.0 0.00 0.00 0.00 69 1012.2
20260904054016 80 135 3.0 11.0 0.00 0.00 0.00 67 1012.0